createdAt,value
2017-09-10T00:00:12.106Z,6.10
2017-09-10T00:02:39.562Z,5.63
2017-09-10T00:05:07.042Z,5.43
2017-09-10T00:07:34.494Z,5.23
2017-09-10T00:10:01.950Z,5.47
2017-09-10T00:12:29.426Z,4.93
2017-09-10T00:14:56.895Z,4.40
2017-09-10T00:17:24.346Z,4.70
2017-09-10T00:19:51.814Z,4.50
2017-09-10T00:22:19.286Z,5.03
2017-09-10T00:24:46.735Z,4.90
2017-09-10T00:27:14.230Z,8.17
2017-09-10T00:29:41.686Z,6.60
2017-09-10T00:32:09.155Z,10.07
2017-09-10T00:34:36.647Z,10.67
2017-09-10T00:37:04.130Z,6.53
2017-09-10T00:39:31.594Z,6.03
2017-09-10T00:41:59.046Z,5.30
2017-09-10T00:44:26.518Z,5.00
2017-09-10T00:46:53.970Z,4.63
2017-09-10T00:49:21.418Z,4.80
2017-09-10T00:51:48.894Z,5.00
2017-09-10T00:54:16.346Z,4.90
2017-09-10T00:56:43.794Z,4.70
2017-09-10T00:59:11.266Z,4.77
2017-09-10T01:01:38.716Z,4.93
2017-09-10T01:04:06.171Z,5.40
2017-09-10T01:06:33.645Z,5.03
2017-09-10T01:09:01.099Z,5.73
2017-09-10T01:11:28.558Z,4.97
2017-09-10T01:13:56.034Z,5.13
2017-09-10T01:16:23.500Z,5.83
2017-09-10T01:18:50.955Z,5.40
2017-09-10T01:21:18.426Z,5.13
2017-09-10T01:23:45.886Z,5.90
2017-09-10T01:26:13.330Z,5.57
2017-09-10T01:28:40.798Z,4.83
2017-09-10T01:31:08.248Z,5.30
2017-09-10T01:33:35.703Z,5.73
2017-09-10T01:36:03.183Z,5.43
2017-09-10T01:38:30.636Z,5.87
2017-09-10T01:40:58.086Z,5.27
2017-09-10T01:43:25.566Z,6.33
2017-09-10T01:45:53.014Z,5.87
2017-09-10T01:48:20.466Z,6.87
2017-09-10T01:50:47.946Z,6.13
2017-09-10T01:53:15.398Z,7.20
2017-09-10T01:55:42.853Z,6.70
2017-09-10T01:58:10.322Z,6.50
2017-09-10T02:00:37.766Z,6.63
2017-09-10T02:03:05.218Z,6.97
2017-09-10T02:05:32.694Z,7.20
2017-09-10T02:08:00.158Z,7.43
2017-09-10T02:10:27.614Z,8.40
2017-09-10T02:12:55.090Z,7.30
2017-09-10T02:15:22.542Z,7.33
2017-09-10T02:17:49.998Z,8.80
2017-09-10T02:20:17.474Z,7.27
2017-09-10T02:22:44.931Z,6.93
2017-09-10T02:25:12.386Z,8.63
2017-09-10T02:27:39.867Z,8.87
2017-09-10T02:30:07.326Z,8.70
2017-09-10T02:32:34.774Z,7.83
2017-09-10T02:35:02.254Z,7.17
2017-09-10T02:37:29.711Z,7.77
2017-09-10T02:39:57.163Z,7.70
2017-09-10T02:42:24.639Z,7.67
2017-09-10T02:44:52.090Z,8.40
2017-09-10T02:47:19.546Z,8.07
2017-09-10T02:49:47.027Z,8.33
2017-09-10T02:52:14.483Z,7.80
2017-09-10T02:54:41.939Z,7.27
2017-09-10T02:57:09.414Z,7.83
2017-09-10T02:59:36.866Z,7.70
2017-09-10T03:02:04.322Z,7.57
2017-09-10T03:04:31.802Z,8.40
2017-09-10T03:06:59.254Z,8.07
2017-09-10T03:09:26.722Z,8.80
2017-09-10T03:11:54.198Z,8.73
2017-09-10T03:14:21.650Z,8.00
2017-09-10T03:16:49.099Z,8.00
2017-09-10T03:19:16.592Z,8.20
2017-09-10T03:21:44.042Z,7.30
2017-09-10T03:24:11.494Z,8.07
2017-09-10T03:26:38.985Z,8.60
2017-09-10T03:29:06.443Z,8.63
2017-09-10T03:31:33.897Z,8.67
2017-09-10T03:34:01.376Z,8.37
2017-09-10T03:36:28.830Z,8.60
2017-09-10T03:38:56.286Z,7.90
2017-09-10T03:41:23.758Z,8.43
2017-09-10T03:43:51.216Z,9.17
2017-09-10T03:46:18.671Z,9.17
2017-09-10T03:48:46.151Z,8.53
2017-09-10T03:51:13.610Z,9.20
2017-09-10T03:53:41.069Z,8.17
2017-09-10T03:56:08.545Z,7.43
2017-09-10T03:58:35.990Z,7.80
2017-09-10T04:01:03.438Z,8.13
2017-09-10T04:03:30.909Z,7.73
2017-09-10T04:05:58.358Z,8.17
2017-09-10T04:08:25.810Z,8.47
2017-09-10T04:10:53.288Z,7.93
2017-09-10T04:13:20.742Z,8.37
2017-09-10T04:15:48.197Z,7.27
2017-09-10T04:18:15.674Z,7.87
2017-09-10T04:20:43.126Z,7.63
2017-09-10T04:23:10.588Z,7.33
2017-09-10T04:25:38.061Z,7.73
2017-09-10T04:28:05.514Z,7.90
2017-09-10T04:30:32.967Z,8.20
2017-09-10T04:33:00.443Z,8.70
2017-09-10T04:35:27.905Z,8.27
2017-09-10T04:37:55.373Z,8.50
2017-09-10T04:40:22.843Z,7.23
2017-09-10T04:42:50.293Z,7.70
2017-09-10T04:45:17.738Z,6.93
2017-09-10T04:47:45.218Z,7.30
2017-09-10T04:50:12.666Z,7.23
2017-09-10T04:52:40.118Z,6.70
2017-09-10T04:55:07.594Z,7.60
2017-09-10T04:57:35.047Z,7.60
2017-09-10T05:00:02.494Z,7.90
2017-09-10T05:02:29.978Z,8.03
2017-09-10T05:04:57.434Z,7.60
2017-09-10T05:07:24.878Z,6.97
2017-09-10T05:09:52.354Z,7.67
2017-09-10T05:12:19.802Z,6.07
2017-09-10T05:14:47.254Z,7.67
2017-09-10T05:17:14.858Z,7.33
2017-09-10T05:19:42.320Z,7.70
2017-09-10T05:22:09.798Z,6.87
2017-09-10T05:24:37.271Z,6.90
2017-09-10T05:27:04.727Z,7.40
2017-09-10T05:29:32.198Z,7.97
2017-09-10T05:31:59.650Z,6.90
2017-09-10T05:34:27.090Z,7.33
2017-09-10T05:36:54.561Z,6.93
2017-09-10T05:39:22.010Z,6.93
2017-09-10T05:41:49.459Z,6.60
2017-09-10T05:44:16.938Z,6.83
2017-09-10T05:46:44.386Z,6.33
2017-09-10T05:49:11.839Z,6.40
2017-09-10T05:51:39.310Z,6.90
2017-09-10T05:54:06.762Z,6.23
2017-09-10T05:56:34.219Z,7.20
2017-09-10T05:59:01.691Z,7.60
2017-09-10T06:01:29.143Z,5.90
2017-09-10T06:03:56.601Z,6.90
2017-09-10T06:06:24.078Z,6.10
2017-09-10T06:08:51.535Z,5.83
2017-09-10T06:11:18.987Z,6.40
2017-09-10T06:13:46.462Z,6.20
2017-09-10T06:16:13.918Z,6.17
2017-09-10T06:18:41.374Z,6.47
2017-09-10T06:21:08.854Z,6.60
2017-09-10T06:23:36.303Z,6.13
2017-09-10T06:26:03.754Z,6.07
2017-09-10T06:28:31.231Z,6.37
2017-09-10T06:30:58.690Z,5.70
2017-09-10T06:33:26.142Z,5.77
2017-09-10T06:35:53.798Z,6.10
2017-09-10T06:38:21.254Z,6.00
2017-09-10T06:40:48.699Z,5.93
2017-09-10T06:43:16.175Z,6.33
2017-09-10T06:45:43.622Z,5.60
2017-09-10T06:48:11.066Z,5.83
2017-09-10T06:50:38.537Z,6.30
2017-09-10T06:53:05.990Z,6.43
2017-09-10T06:55:33.451Z,6.60
2017-09-10T06:58:00.926Z,6.30
2017-09-10T07:00:28.382Z,6.33
2017-09-10T07:02:55.835Z,5.93
2017-09-10T07:05:23.316Z,6.50
2017-09-10T07:07:50.770Z,5.73
2017-09-10T07:10:18.218Z,6.50
2017-09-10T07:12:45.694Z,6.53
2017-09-10T07:15:13.158Z,5.97
2017-09-10T07:17:40.615Z,6.67
2017-09-10T07:20:08.099Z,6.63
2017-09-10T07:22:35.570Z,6.63
2017-09-10T07:25:03.035Z,6.47
2017-09-10T07:27:30.539Z,6.20
2017-09-10T07:29:57.990Z,6.30
2017-09-10T07:32:25.446Z,6.17
2017-09-10T07:34:52.918Z,6.83
2017-09-10T07:37:20.374Z,8.93
2017-09-10T07:39:47.827Z,6.10
2017-09-10T07:42:15.307Z,6.23
2017-09-10T07:44:42.762Z,5.73
2017-09-10T07:47:10.224Z,6.40
2017-09-10T07:49:37.690Z,6.17
2017-09-10T07:52:05.147Z,5.90
2017-09-10T07:54:32.606Z,6.47
2017-09-10T07:57:00.102Z,6.63
2017-09-10T07:59:27.553Z,6.80
2017-09-10T08:01:55.002Z,6.30
2017-09-10T08:04:22.482Z,6.40
2017-09-10T08:06:49.955Z,7.57
2017-09-10T08:09:17.412Z,7.03
2017-09-10T08:11:44.882Z,8.00
2017-09-10T08:14:12.334Z,7.53
2017-09-10T08:16:39.802Z,7.60
2017-09-10T08:19:07.278Z,6.87
2017-09-10T08:21:34.754Z,7.80
2017-09-10T08:24:02.223Z,6.63
2017-09-10T08:26:29.699Z,6.50
2017-09-10T08:28:57.155Z,6.40
2017-09-10T08:31:24.629Z,6.10
2017-09-10T08:33:52.082Z,6.50
2017-09-10T08:36:19.530Z,6.03
2017-09-10T08:38:47.010Z,6.23
2017-09-10T08:41:14.467Z,5.43
2017-09-10T08:43:41.942Z,5.60
2017-09-10T08:46:09.418Z,5.50
2017-09-10T08:48:36.899Z,5.20
2017-09-10T08:51:04.378Z,6.10
2017-09-10T08:53:31.831Z,5.50
2017-09-10T08:55:59.287Z,5.90
2017-09-10T08:58:26.766Z,6.03
2017-09-10T09:00:54.222Z,6.00
2017-09-10T09:03:21.695Z,5.47
2017-09-10T09:05:49.162Z,5.40
2017-09-10T09:08:16.622Z,5.00
2017-09-10T09:10:44.081Z,5.77
2017-09-10T09:13:11.555Z,5.67
2017-09-10T09:15:39.016Z,5.43
2017-09-10T09:18:06.470Z,5.17
2017-09-10T09:20:33.954Z,5.10
2017-09-10T09:23:01.475Z,5.03
2017-09-10T09:25:28.930Z,5.23
2017-09-10T09:27:56.469Z,5.33
2017-09-10T09:30:23.946Z,5.03
2017-09-10T09:32:51.407Z,5.07
2017-09-10T09:35:18.877Z,5.10
2017-09-10T09:37:46.358Z,4.97
2017-09-10T09:40:13.802Z,4.67
2017-09-10T09:42:41.253Z,4.83
2017-09-10T09:45:08.722Z,4.60
2017-09-10T09:47:36.174Z,5.10
2017-09-10T09:50:03.627Z,4.63
2017-09-10T09:52:31.123Z,4.50
2017-09-10T09:54:58.570Z,4.27
2017-09-10T09:57:26.019Z,4.23
2017-09-10T09:59:53.492Z,4.60
2017-09-10T10:02:20.942Z,4.37
2017-09-10T10:04:48.393Z,4.30
2017-09-10T10:07:15.867Z,4.50
2017-09-10T10:09:43.322Z,4.00
2017-09-10T10:12:10.798Z,4.07
2017-09-10T10:14:38.271Z,4.07
2017-09-10T10:17:05.747Z,3.90
2017-09-10T10:19:33.209Z,4.30
2017-09-10T10:22:00.690Z,4.10
2017-09-10T10:24:28.143Z,4.03
2017-09-10T10:26:55.592Z,4.70
2017-09-10T10:29:24.121Z,4.20
2017-09-10T10:31:51.594Z,3.33
2017-09-10T10:34:19.055Z,4.70
2017-09-10T10:36:46.564Z,4.23
2017-09-10T10:39:14.878Z,4.40
2017-09-10T10:41:42.330Z,4.20
2017-09-10T10:44:09.826Z,4.40
2017-09-10T10:46:37.275Z,4.23
2017-09-10T10:49:04.838Z,5.50
2017-09-10T10:51:32.318Z,3.87
2017-09-10T10:53:59.766Z,4.03
2017-09-10T10:56:27.223Z,3.63
2017-09-10T10:58:54.699Z,3.50
2017-09-10T11:01:22.155Z,4.33
2017-09-10T11:03:49.618Z,4.27
2017-09-10T11:06:17.366Z,3.67
2017-09-10T11:08:44.871Z,4.10
2017-09-10T11:11:12.333Z,3.47
2017-09-10T11:13:39.851Z,3.90
2017-09-10T11:16:07.308Z,3.93
2017-09-10T11:18:34.779Z,4.30
2017-09-10T11:21:02.263Z,4.20
2017-09-10T11:23:29.742Z,4.20
2017-09-10T11:25:57.200Z,4.20
2017-09-10T11:28:24.693Z,4.40
2017-09-10T11:30:52.239Z,4.30
2017-09-10T11:33:19.706Z,4.03
2017-09-10T11:35:47.218Z,3.73
2017-09-10T11:38:14.756Z,4.10
2017-09-10T11:40:42.203Z,4.33
2017-09-10T11:43:09.652Z,4.43
2017-09-10T11:45:37.131Z,3.80
2017-09-10T11:48:04.582Z,4.40
2017-09-10T11:50:32.034Z,3.67
2017-09-10T11:52:59.517Z,3.90
2017-09-10T11:55:26.979Z,4.10
2017-09-10T11:57:54.449Z,6.23
2017-09-10T12:00:21.935Z,3.57
2017-09-10T12:02:49.457Z,3.97
2017-09-10T12:05:16.934Z,4.10
2017-09-10T12:07:44.410Z,3.50
2017-09-10T12:10:11.877Z,4.07
2017-09-10T12:12:39.341Z,3.90
2017-09-10T12:15:06.817Z,3.40
2017-09-10T12:17:34.267Z,4.23
2017-09-10T12:20:01.723Z,3.40
2017-09-10T12:22:29.207Z,4.10
2017-09-10T12:24:56.663Z,4.50
2017-09-10T12:27:24.134Z,10.40
2017-09-10T12:29:51.619Z,4.17
2017-09-10T12:32:19.061Z,4.00
2017-09-10T12:34:46.523Z,5.00
2017-09-10T12:37:14.011Z,4.73
2017-09-10T12:39:41.466Z,4.80
2017-09-10T12:42:08.915Z,5.23
2017-09-10T12:44:36.394Z,5.43
2017-09-10T12:47:03.843Z,4.53
2017-09-10T12:49:31.307Z,4.30
2017-09-10T12:51:58.823Z,7.60
2017-09-10T12:54:26.283Z,4.67
2017-09-10T12:56:53.736Z,4.47
2017-09-10T12:59:21.214Z,4.60
2017-09-10T13:01:48.694Z,4.20
2017-09-10T13:04:16.140Z,5.00
2017-09-10T13:06:43.610Z,5.50
2017-09-10T13:09:11.058Z,4.43
2017-09-10T13:11:38.510Z,5.73
2017-09-10T13:14:05.990Z,7.03
2017-09-10T13:16:33.448Z,4.73
2017-09-10T13:19:00.949Z,6.20
2017-09-10T13:21:28.422Z,5.07
2017-09-10T13:23:55.941Z,4.47
2017-09-10T13:26:23.419Z,4.63
2017-09-10T13:28:50.879Z,4.60
2017-09-10T13:31:18.347Z,5.87
2017-09-10T13:33:45.813Z,4.83
2017-09-10T13:36:13.278Z,5.00
2017-09-10T13:38:40.730Z,4.40
2017-09-10T13:41:08.210Z,4.93
2017-09-10T13:43:35.651Z,5.43
2017-09-10T13:46:03.167Z,4.67
2017-09-10T13:48:30.618Z,4.80
2017-09-10T13:50:58.070Z,5.47
2017-09-10T13:53:25.549Z,4.93
2017-09-10T13:55:53.008Z,5.20
2017-09-10T13:58:20.464Z,5.13
2017-09-10T14:00:47.937Z,5.20
2017-09-10T14:03:15.418Z,5.03
2017-09-10T14:05:42.880Z,5.40
2017-09-10T14:08:10.364Z,5.27
2017-09-10T14:10:37.851Z,6.10
2017-09-10T14:13:05.303Z,5.47
2017-09-10T14:15:32.751Z,5.80
2017-09-10T14:18:00.229Z,5.30
2017-09-10T14:20:27.690Z,5.17
2017-09-10T14:22:55.166Z,5.40
2017-09-10T14:25:22.615Z,5.30
2017-09-10T14:27:50.062Z,4.80
2017-09-10T14:30:17.534Z,4.90
2017-09-10T14:32:44.988Z,4.90
2017-09-10T14:35:12.466Z,7.17
2017-09-10T14:37:39.918Z,6.40
2017-09-10T14:40:07.376Z,4.60
2017-09-10T14:42:34.863Z,4.70
2017-09-10T14:45:02.339Z,5.50
2017-09-10T14:47:29.934Z,5.40
2017-09-10T14:49:57.411Z,5.23
2017-09-10T14:52:24.865Z,5.87
2017-09-10T14:54:52.326Z,5.03
2017-09-10T14:57:19.802Z,5.30
2017-09-10T14:59:47.260Z,5.30
2017-09-10T15:02:14.751Z,5.20
2017-09-10T15:04:42.228Z,5.10
2017-09-10T15:07:09.685Z,4.70
2017-09-10T15:09:37.158Z,4.63
2017-09-10T15:12:04.637Z,5.40
2017-09-10T15:14:32.184Z,4.90
2017-09-10T15:16:59.638Z,5.40
2017-09-10T15:19:27.150Z,5.50
2017-09-10T15:21:54.595Z,4.97
2017-09-10T15:24:22.101Z,5.10
2017-09-10T15:26:49.593Z,5.07
2017-09-10T15:29:17.062Z,5.30
2017-09-10T15:31:44.522Z,5.63
2017-09-10T15:34:11.998Z,5.67
2017-09-10T15:36:39.481Z,4.90
2017-09-10T15:39:06.944Z,4.57
2017-09-10T15:41:34.440Z,4.57
2017-09-10T15:44:01.927Z,8.83
2017-09-10T15:46:29.380Z,5.50
2017-09-10T15:48:56.836Z,5.10
2017-09-10T15:51:24.372Z,5.20
2017-09-10T15:53:51.852Z,5.03
2017-09-10T15:56:19.342Z,5.80
2017-09-10T15:58:46.812Z,6.47
2017-09-10T16:01:14.309Z,5.70
2017-09-10T16:03:41.817Z,5.60
2017-09-10T16:06:09.271Z,6.90
2017-09-10T16:08:36.750Z,6.90
2017-09-10T16:11:04.277Z,5.60
2017-09-10T16:13:31.734Z,5.90
2017-09-10T16:15:59.665Z,5.60
2017-09-10T16:18:27.144Z,5.10
2017-09-10T16:20:54.619Z,5.10
2017-09-10T16:23:22.100Z,5.20
2017-09-10T16:25:49.588Z,5.13
2017-09-10T16:28:17.053Z,6.10
2017-09-10T16:30:44.531Z,5.20
2017-09-10T16:33:12.021Z,4.83
2017-09-10T16:35:39.548Z,4.83
2017-09-10T16:38:07.139Z,5.57
2017-09-10T16:40:34.814Z,6.13
2017-09-10T16:43:02.537Z,5.13
2017-09-10T16:45:30.241Z,5.30
2017-09-10T16:47:58.191Z,4.70
2017-09-10T16:50:25.726Z,5.10
2017-09-10T16:52:53.279Z,5.40
2017-09-10T16:55:20.796Z,5.07
2017-09-10T16:57:48.517Z,5.40
2017-09-10T17:00:16.099Z,4.80
2017-09-10T17:02:43.692Z,5.43
2017-09-10T17:08:42.252Z,5.90
2017-09-10T17:11:10.536Z,5.30
2017-09-10T17:13:38.661Z,5.33
2017-09-10T17:16:06.841Z,5.50
2017-09-10T17:18:34.967Z,5.10
2017-09-10T17:21:02.725Z,5.03
2017-09-10T17:23:30.890Z,4.90
2017-09-10T17:25:59.279Z,5.93
2017-09-10T17:28:27.670Z,4.80
2017-09-10T17:30:56.106Z,5.53
2017-09-10T17:33:24.643Z,5.00
2017-09-10T17:35:53.091Z,5.60
2017-09-10T17:38:21.568Z,5.47
2017-09-10T17:43:57.444Z,8.70
2017-09-10T17:46:25.751Z,4.70
2017-09-10T17:48:54.300Z,5.43
2017-09-10T17:51:22.819Z,5.00
2017-09-10T17:53:51.509Z,5.40
2017-09-10T17:56:19.912Z,5.77
2017-09-10T17:58:48.540Z,5.77
2017-09-10T18:01:16.975Z,5.60
2017-09-10T18:03:45.480Z,5.77
2017-09-10T18:06:14.009Z,5.30
2017-09-10T18:08:42.306Z,5.50
2017-09-10T18:11:10.687Z,5.73
2017-09-10T18:13:38.945Z,6.20
2017-09-10T18:16:07.299Z,5.50
2017-09-10T18:18:35.596Z,6.30
2017-09-10T18:21:04.205Z,6.03
2017-09-10T18:23:32.711Z,5.70
2017-09-10T18:26:01.176Z,5.67
2017-09-10T18:28:29.681Z,6.03
2017-09-10T18:30:58.219Z,5.93
2017-09-10T18:33:26.672Z,5.77
2017-09-10T18:35:54.390Z,5.93
2017-09-10T18:38:22.813Z,5.93
2017-09-10T18:40:51.355Z,6.07
2017-09-10T18:43:20.490Z,6.20
2017-09-10T18:45:49.028Z,6.20
2017-09-10T18:48:17.411Z,6.00
2017-09-10T18:50:46.050Z,6.30
2017-09-10T18:53:14.444Z,6.07
2017-09-10T18:55:42.897Z,7.37
2017-09-10T18:58:11.565Z,6.30
2017-09-10T19:00:40.160Z,6.70
2017-09-10T19:03:08.621Z,6.40
2017-09-10T19:05:37.315Z,6.30
2017-09-10T19:08:05.810Z,5.83
2017-09-10T19:10:34.263Z,7.40
2017-09-10T19:13:02.924Z,17.57
2017-09-10T19:15:31.375Z,23.60
2017-09-10T19:17:59.838Z,17.87
2017-09-10T19:20:28.446Z,14.70
2017-09-10T19:22:56.929Z,10.87
2017-09-10T19:25:25.385Z,8.37
2017-09-10T19:27:54.000Z,10.00
2017-09-10T19:30:22.537Z,10.70
2017-09-10T19:32:51.009Z,11.20
2017-09-10T19:35:19.566Z,12.80
2017-09-10T19:37:48.051Z,11.30
2017-09-10T19:40:16.516Z,13.03
2017-09-10T19:42:45.098Z,12.63
2017-09-10T19:45:13.602Z,12.07
2017-09-10T19:47:42.225Z,14.10
2017-09-10T19:50:10.804Z,13.43
2017-09-10T19:52:39.267Z,13.97
2017-09-10T19:55:07.701Z,12.87
2017-09-10T19:57:36.305Z,16.10
2017-09-10T20:00:04.805Z,16.17
2017-09-10T20:02:33.275Z,18.57
2017-09-10T20:05:02.070Z,17.73
2017-09-10T20:07:30.529Z,17.47
2017-09-10T20:09:58.957Z,16.13
2017-09-10T20:12:27.653Z,14.60
2017-09-10T20:14:56.223Z,12.33
2017-09-10T20:17:24.806Z,11.30
2017-09-10T20:19:53.737Z,10.30
2017-09-10T20:22:23.203Z,8.30
2017-09-10T20:24:52.084Z,8.17
2017-09-10T20:27:21.542Z,7.53
2017-09-10T20:29:49.988Z,7.40
2017-09-10T20:32:18.704Z,6.70
2017-09-10T20:36:09.744Z,7.43
2017-09-10T20:38:38.183Z,5.97
2017-09-10T20:41:06.666Z,6.60
2017-09-10T20:43:35.398Z,6.70
2017-09-10T20:46:03.850Z,5.80
2017-09-10T20:48:32.221Z,5.30
2017-09-10T20:51:00.594Z,5.43
2017-09-10T20:53:28.668Z,5.50
2017-09-10T20:55:56.784Z,5.63
2017-09-10T20:58:24.564Z,5.53
2017-09-10T21:00:52.362Z,5.23
2017-09-10T21:03:20.133Z,5.60
2017-09-10T21:05:47.834Z,5.50
2017-09-10T21:08:15.362Z,5.33
2017-09-10T21:10:42.965Z,5.80
2017-09-10T21:13:10.611Z,6.20
2017-09-10T21:15:38.119Z,6.53
2017-09-10T21:18:05.587Z,6.60
2017-09-10T21:20:33.073Z,7.13
2017-09-10T21:23:00.547Z,7.50
2017-09-10T21:25:28.002Z,7.23
2017-09-10T21:27:55.510Z,7.60
2017-09-10T21:30:22.982Z,7.87
2017-09-10T21:32:50.441Z,7.60
2017-09-10T21:35:17.923Z,8.70
2017-09-10T21:37:45.435Z,7.70
2017-09-10T21:40:12.895Z,7.57
2017-09-10T21:42:40.350Z,7.27
2017-09-10T21:45:07.834Z,7.20
2017-09-10T21:47:35.290Z,7.80
2017-09-10T21:50:02.751Z,7.30
2017-09-10T21:52:30.222Z,6.83
2017-09-10T21:54:57.685Z,9.20
2017-09-10T21:57:25.142Z,9.57
2017-09-10T21:59:52.621Z,9.50
2017-09-10T22:02:20.123Z,8.80
2017-09-10T22:04:47.572Z,8.47
2017-09-10T22:07:15.049Z,7.93
2017-09-10T22:09:42.502Z,8.87
2017-09-10T22:12:09.958Z,7.57
2017-09-10T22:14:37.447Z,7.07
2017-09-10T22:19:38.695Z,5.97
2017-09-10T22:22:06.151Z,6.47
2017-09-10T22:24:33.602Z,5.90
2017-09-10T22:27:01.088Z,6.00
2017-09-10T22:29:28.545Z,6.47
2017-09-10T22:31:55.995Z,5.87
2017-09-10T22:34:23.478Z,6.60
2017-09-10T22:36:50.960Z,6.77
2017-09-10T22:39:18.418Z,6.73
2017-09-10T22:41:45.894Z,8.27
2017-09-10T22:44:13.363Z,7.43
2017-09-10T22:46:40.830Z,7.70
2017-09-10T22:49:08.318Z,7.93
2017-09-10T22:51:35.775Z,6.40
2017-09-10T22:54:03.234Z,7.17
2017-09-10T22:56:30.726Z,6.10
2017-09-10T22:58:58.183Z,7.10
2017-09-10T23:01:25.662Z,6.10
2017-09-10T23:03:53.158Z,6.27
2017-09-10T23:06:20.623Z,5.73
2017-09-10T23:08:48.079Z,6.00
2017-09-10T23:11:15.680Z,6.80
2017-09-10T23:13:43.135Z,6.27
2017-09-10T23:16:10.602Z,6.50
2017-09-10T23:18:38.134Z,6.50
2017-09-10T23:21:05.595Z,6.73
2017-09-10T23:23:33.111Z,6.07
2017-09-10T23:26:00.583Z,6.53
2017-09-10T23:28:28.058Z,5.90
2017-09-10T23:30:55.515Z,6.07
2017-09-10T23:33:22.995Z,5.07
2017-09-10T23:35:50.751Z,5.80
2017-09-10T23:38:18.251Z,5.20
2017-09-10T23:40:45.775Z,4.80
2017-09-10T23:43:13.381Z,5.37
2017-09-10T23:45:40.862Z,5.73
2017-09-10T23:48:08.402Z,5.20
2017-09-10T23:50:35.887Z,5.50
2017-09-10T23:53:04.783Z,5.67
2017-09-10T23:55:32.259Z,5.80
2017-09-10T23:57:59.734Z,5.83
